Time;durP1;ratioP1;P1;durP2;ratioP2;P2;SDS_P1;SDS_P2;PMS_P1;PMS_P2;Temp;Humidity;BMP_temperature;BMP_pressure;BME280_temperature;BME280_humidity;BME280_pressure;Samples;Min_cycle;Max_cycle;Signal;HPM_P1;HPM_P2
2022/05/01 00:00:27;;;;;;;17.30;12.43;;;;;;;;;;6098417;23;20019;-85
2022/05/01 00:02:53;;;;;;;15.68;11.82;;;;;;;8.61;85.99;67725.28;6098777;23;20030;-84
2022/05/01 00:05:18;;;;;;;15.80;12.27;;;;;;;8.53;86.48;67722.09;6099389;23;20023;-84
2022/05/01 00:07:44;;;;;;;14.63;12.45;;;;;;;8.54;86.48;67717.34;6097256;23;20015;-86
2022/05/01 00:10:09;;;;;;;17.23;13.10;;;;;;;;;;6099618;23;20042;-84
2022/05/01 00:12:35;;;;;;;17.00;13.93;;;;;;;8.55;86.46;67724.38;6068775;23;20018;-83
2022/05/01 00:15:01;;;;;;;16.63;12.57;;;;;;;8.56;86.72;67724.94;6096568;23;20054;-83
2022/05/01 00:17:29;;;;;;;17.63;13.10;;;;;;;8.58;86.58;67722.47;6078409;23;20027;-85
2022/05/01 00:19:57;;;;;;;15.25;12.63;;;;;;;8.56;86.68;67728.16;5954795;23;20073;-86
2022/05/01 00:22:25;;;;;;;16.70;13.23;;;;;;;;;;5883943;24;20129;-86
2022/05/01 00:24:56;;;;;;;17.27;12.88;;;;;;;8.49;87.71;67717.00;5920357;24;20614;-86
2022/05/01 00:27:24;;;;;;;18.40;13.15;;;;;;;8.53;87.68;67722.09;5907107;24;20044;-84
2022/05/01 00:29:50;;;;;;;16.48;12.48;;;;;;;8.53;87.10;67724.19;5869800;24;20025;-85
2022/05/01 00:32:15;;;;;;;14.48;12.63;;;;;;;8.44;87.63;67711.34;5914750;24;20405;-86
2022/05/01 00:37:24;;;;;;;15.88;12.48;;;;;;;;;;5914225;24;20082;-84
2022/05/01 00:39:49;;;;;;;16.63;12.50;;;;;;;;;;5916065;24;20048;-86
2022/05/01 00:42:18;;;;;;;15.63;12.40;;;;;;;8.45;87.69;67713.03;5898083;24;20258;-86
2022/05/01 00:44:43;;;;;;;16.37;12.77;;;;;;;8.36;88.32;67703.38;5937800;23;20323;-87
2022/05/01 00:47:08;;;;;;;15.30;12.27;;;;;;;;;;6032943;23;20279;-84
2022/05/01 00:49:34;;;;;;;16.75;12.43;;;;;;;8.38;88.24;67704.53;6032904;23;20023;-84
2022/05/01 00:52:11;;;;;;;16.85;11.38;;;;;;;8.43;88.04;67710.19;6062702;23;20100;-86
2022/05/01 00:54:39;;;;;;;17.35;11.93;;;;;;;8.43;88.01;67710.78;6066098;23;20022;-85
2022/05/01 00:57:06;;;;;;;14.68;10.80;;;;;;;8.42;87.78;67711.72;6067891;23;20043;-85
2022/05/01 00:59:33;;;;;;;14.90;10.73;;;;;;;8.47;87.47;67720.63;6064648;23;20063;-85
2022/05/01 01:01:59;;;;;;;14.18;11.65;;;;;;;;;;6067563;23;20019;-86
2022/05/01 01:04:24;;;;;;;16.88;11.23;;;;;;;8.47;87.73;67714.75;6068669;23;20026;-85
2022/05/01 01:06:49;;;;;;;15.35;12.10;;;;;;;8.33;88.43;67700.00;6067011;23;20015;-86
2022/05/01 01:09:16;;;;;;;15.15;12.25;;;;;;;;;;6067722;23;20025;-86
2022/05/01 01:11:42;;;;;;;13.15;11.10;;;;;;;8.39;88.73;67705.69;6066392;23;20022;-86
2022/05/01 01:14:08;;;;;;;17.10;11.52;;;;;;;8.43;88.24;67710.78;6067607;23;20472;-85
2022/05/01 01:16:36;;;;;;;15.75;11.48;;;;;;;8.44;87.67;67711.91;6067158;23;20027;-86
2022/05/01 01:19:06;;;;;;;14.70;11.20;;;;;;;8.44;87.49;67714.00;6066858;23;20018;-86
2022/05/01 01:21:32;;;;;;;15.85;12.40;;;;;;;8.26;89.08;67692.06;6067770;23;20018;-85
2022/05/01 01:23:59;;;;;;;14.40;12.20;;;;;;;8.32;88.73;67698.88;6068872;23;20066;-85
2022/05/01 01:26:25;;;;;;;15.95;12.15;;;;;;;8.33;88.89;67702.63;6078330;23;20062;-87
2022/05/01 01:28:50;;;;;;;15.05;11.02;;;;;;;8.33;88.76;67699.44;6083306;23;20026;-86
2022/05/01 01:34:05;;;;;;;16.67;12.15;;;;;;;8.39;88.71;67708.91;6064642;23;20078;-87
2022/05/01 01:36:32;;;;;;;15.52;11.90;;;;;;;;;;6065552;23;20070;-85
2022/05/01 01:38:57;;;;;;;15.15;12.40;;;;;;;8.33;89.59;67700.00;6065188;23;20025;-86
2022/05/01 01:41:27;;;;;;;17.60;13.38;;;;;;;8.22;90.13;67687.53;6064630;23;20481;-86
2022/05/01 01:43:53;;;;;;;17.15;13.43;;;;;;;8.17;90.75;67681.88;6066929;23;20023;-86
2022/05/01 01:46:19;;;;;;;13.77;11.85;;;;;;;;;;6065802;23;20078;-85
2022/05/01 01:48:45;;;;;;;16.73;12.95;;;;;;;;;;6064508;23;20520;-87
2022/05/01 01:51:10;;;;;;;15.90;13.10;;;;;;;8.12;90.84;67670.91;6068005;23;20433;-84
2022/05/01 01:53:35;;;;;;;15.32;13.13;;;;;;;8.15;90.96;67679.59;6063303;23;20018;-85
2022/05/01 01:56:02;;;;;;;15.23;12.25;;;;;;;8.22;90.50;67686.97;6065878;23;20023;-87
2022/05/01 01:58:30;;;;;;;17.83;12.00;;;;;;;8.25;90.49;67693.00;6088333;23;20046;-85
2022/05/01 02:00:56;;;;;;;17.52;12.85;;;;;;;8.24;90.52;67689.81;6067215;23;20025;-86
2022/05/01 02:03:22;;;;;;;17.23;13.23;;;;;;;;;;6064913;23;20038;-85
2022/05/01 02:05:48;;;;;;;16.30;12.98;;;;;;;;;;6066033;23;20058;-87
2022/05/01 02:08:16;;;;;;;15.85;12.05;;;;;;;8.12;91.35;67676.22;6064438;23;20026;-85
2022/05/01 02:10:41;;;;;;;15.85;12.43;;;;;;;8.14;91.38;67683.75;6065549;23;20023;-86
2022/05/01 02:13:06;;;;;;;16.08;13.45;;;;;;;;;;6065815;23;20042;-85
2022/05/01 02:15:32;;;;;;;16.48;12.95;;;;;;;;;;6065739;23;20525;-85
2022/05/01 02:17:59;;;;;;;17.10;14.00;;;;;;;8.06;92.05;67669.41;6065819;23;20082;-84
2022/05/01 02:20:26;;;;;;;18.23;12.75;;;;;;;8.08;91.47;67671.66;6067690;23;20042;-86
2022/05/01 02:22:54;;;;;;;14.82;11.40;;;;;;;8.16;91.00;67680.16;6063220;23;20414;-86
2022/05/01 02:25:23;;;;;;;18.63;12.77;;;;;;;8.16;91.01;67680.72;6065908;23;20019;-86
2022/05/01 02:27:49;;;;;;;20.30;13.52;;;;;;;8.12;91.52;67676.78;6066227;23;20047;-86
2022/05/01 02:30:16;;;;;;;16.13;12.70;;;;;;;8.05;91.65;67668.84;6067786;23;20078;-86
2022/05/01 02:32:41;;;;;;;14.50;12.27;;;;;;;8.13;91.58;67682.63;6066680;23;20019;-86
2022/05/01 02:35:10;;;;;;;20.40;12.82;;;;;;;8.18;91.10;67683.00;6067611;23;20026;-84
2022/05/01 02:37:35;;;;;;;17.05;12.10;;;;;;;8.14;91.03;67679.03;6066511;23;20019;-84
2022/05/01 02:40:01;;;;;;;16.85;12.48;;;;;;;8.17;91.40;67681.28;6067636;23;20039;-86
2022/05/01 02:42:27;;;;;;;16.10;13.13;;;;;;;8.16;91.69;67680.72;6064312;23;20018;-85
2022/05/01 02:44:52;;;;;;;18.52;13.18;;;;;;;;;;6066823;23;20589;-85
2022/05/01 02:47:17;;;;;;;16.05;12.82;;;;;;;7.93;93.63;67655.25;6069156;23;20045;-86
2022/05/01 02:49:43;;;;;;;16.52;13.10;;;;;;;7.87;94.07;67649.03;6067529;23;20021;-84
2022/05/01 02:52:09;;;;;;;17.00;13.88;;;;;;;7.91;94.29;67653.56;6069493;23;20038;-85
2022/05/01 02:54:34;;;;;;;16.08;12.43;;;;;;;7.99;93.00;67662.03;6068864;23;20023;-85
2022/05/01 02:57:00;;;;;;;18.75;13.00;;;;;;;8.02;92.88;67667.53;6091739;23;20015;-84
2022/05/01 02:59:25;;;;;;;19.15;12.90;;;;;;;8.06;92.77;67669.97;6069432;23;20018;-86
2022/05/01 03:01:51;;;;;;;17.23;12.52;;;;;;;8.05;92.89;67668.84;6067257;23;20518;-84
2022/05/01 03:04:16;;;;;;;17.08;13.15;;;;;;;8.05;92.64;67668.28;6065803;23;20030;-85
2022/05/01 03:06:42;;;;;;;17.30;12.63;;;;;;;8.09;92.72;67678.69;6063571;23;20022;-84
2022/05/01 03:09:10;;;;;;;16.42;13.02;;;;;;;8.00;93.72;67665.25;6066855;23;20046;-84
2022/05/01 03:11:36;;;;;;;18.00;13.57;;;;;;;7.89;94.11;67651.28;6066481;23;20026;-84
2022/05/01 03:14:02;;;;;;;16.73;13.63;;;;;;;7.87;94.71;67648.47;6066286;23;20015;-85
2022/05/01 03:16:28;;;;;;;16.45;12.90;;;;;;;8.00;93.91;67662.59;6061198;23;20023;-86
2022/05/01 03:24:21;;;;;;;17.27;13.40;;;;;;;7.95;93.51;67656.97;6065184;23;20095;-84
2022/05/01 03:26:47;;;;;;;17.35;12.57;;;;;;;7.98;93.34;67660.34;6064264;23;20474;-85
2022/05/01 03:29:15;;;;;;;17.35;12.95;;;;;;;7.99;93.27;67661.47;6064214;23;20035;-85
2022/05/01 03:31:40;;;;;;;18.23;13.25;;;;;;;8.00;93.07;67662.59;6064322;23;20015;-84
2022/05/01 03:34:06;;;;;;;17.73;12.82;;;;;;;8.03;93.21;67666.59;6064904;23;20046;-83
2022/05/01 03:36:32;;;;;;;17.50;13.20;;;;;;;;;;6066206;23;20019;-84
2022/05/01 03:38:58;;;;;;;17.65;12.55;;;;;;;8.06;93.01;67669.41;6067181;23;20089;-85
2022/05/01 03:41:26;;;;;;;18.13;13.35;;;;;;;8.06;93.08;67669.97;6063033;23;20039;-85
2022/05/01 03:43:51;;;;;;;18.05;13.98;;;;;;;;;;6064452;23;20022;-85
2022/05/01 03:46:20;;;;;;;17.75;14.35;;;;;;;7.89;94.80;67650.72;6065039;23;20042;-84
2022/05/01 03:48:46;;;;;;;16.27;14.50;;;;;;;7.83;95.75;67644.50;6065690;23;20018;-86
2022/05/01 03:51:11;;;;;;;21.83;14.15;;;;;;;;;;6066679;23;20024;-86
2022/05/01 03:53:36;;;;;;;21.50;15.63;;;;;;;7.97;94.35;67659.22;6061489;23;20126;-84
2022/05/01 03:56:02;;;;;;;18.38;15.98;;;;;;;7.88;94.88;67650.19;6064124;23;20737;-85
2022/05/01 03:58:29;;;;;;;23.55;14.13;;;;;;;;;;6064575;23;20069;-86
2022/05/01 04:00:54;;;;;;;19.42;14.40;;;;;;;;;;6065902;23;20101;-84
2022/05/01 04:03:20;;;;;;;18.77;15.00;;;;;;;8.02;93.69;67664.88;6065752;23;20035;-86
2022/05/01 04:05:46;;;;;;;18.30;14.82;;;;;;;7.98;93.87;67660.91;6067764;23;20026;-86
2022/05/01 04:08:12;;;;;;;19.83;15.75;;;;;;;7.97;94.40;67659.78;6067298;23;20078;-85
2022/05/01 04:10:41;;;;;;;19.50;14.93;;;;;;;;;;6068172;23;20566;-86
2022/05/01 04:13:07;;;;;;;18.95;14.38;;;;;;;7.90;93.90;67652.41;6068608;23;20019;-84
2022/05/01 04:15:33;;;;;;;21.27;15.32;;;;;;;7.90;94.10;67655.06;6066822;23;20026;-86
2022/05/01 04:17:59;;;;;;;21.98;15.77;;;;;;;7.94;93.87;67655.81;6067607;23;20018;-85
2022/05/01 04:20:25;;;;;;;21.08;15.40;;;;;;;7.96;94.37;67660.75;6068056;23;20659;-85
2022/05/01 04:22:51;;;;;;;18.92;14.90;;;;;;;7.87;94.88;67649.03;6069037;23;20015;-86
2022/05/01 04:25:24;;;;;;;17.08;13.75;;;;;;;7.93;94.51;67657.34;6092482;23;20161;-86
2022/05/01 04:27:52;;;;;;;19.77;15.65;;;;;;;7.89;94.51;67650.72;6068715;23;20033;-85
2022/05/01 04:30:18;;;;;;;21.48;14.60;;;;;;;;;;6073177;23;20029;-85
2022/05/01 04:33:04;;;;;;;23.60;15.32;;;;;;;7.93;94.25;67655.25;6073042;23;20043;-83
2022/05/01 04:35:37;;;;;;;18.45;14.25;;;;;;;7.93;93.82;67657.34;6075743;23;20024;-85
2022/05/01 04:38:04;;;;;;;19.48;15.25;;;;;;;7.88;95.22;67649.59;6079232;23;20010;-85
2022/05/01 04:40:34;;;;;;;20.45;15.77;;;;;;;;;;6074425;23;20022;-85
2022/05/01 04:43:11;;;;;;;20.88;15.82;;;;;;;7.84;95.74;67645.06;6068808;23;20026;-87
2022/05/01 04:45:40;;;;;;;18.15;14.10;;;;;;;7.91;94.67;67653.56;6067463;23;20055;-86
2022/05/01 04:48:06;;;;;;;20.98;14.50;;;;;;;7.91;94.95;67653.56;6069944;23;20015;-85
2022/05/01 04:50:32;;;;;;;22.50;16.25;;;;;;;7.89;95.12;67651.28;6067525;23;20050;-83
2022/05/01 04:53:00;;;;;;;19.50;14.85;;;;;;;;;;6069159;23;20019;-85
2022/05/01 04:55:25;;;;;;;19.77;14.48;;;;;;;;;;6069216;23;20058;-85
2022/05/01 04:57:51;;;;;;;22.45;15.73;;;;;;;;;;6078206;23;20047;-86
2022/05/01 05:00:19;;;;;;;18.90;15.05;;;;;;;7.97;94.64;67659.78;6086828;23;20023;-87
2022/05/01 05:02:48;;;;;;;21.13;16.42;;;;;;;7.82;95.83;67643.34;6073801;23;20079;-83
2022/05/01 05:05:13;;;;;;;20.10;15.90;;;;;;;7.90;95.47;67651.84;6065281;23;20026;-83
2022/05/01 05:07:40;;;;;;;22.25;15.00;;;;;;;7.93;95.17;67654.69;6061943;23;20457;-84
2022/05/01 05:10:08;;;;;;;19.08;15.40;;;;;;;7.90;96.03;67652.41;6062164;23;20401;-83
2022/05/01 05:12:34;;;;;;;20.65;15.43;;;;;;;7.99;94.98;67664.69;6062561;23;20019;-83
2022/05/01 05:15:00;;;;;;;23.95;15.82;;;;;;;7.99;95.20;67661.47;6063154;23;20023;-84
2022/05/01 05:17:29;;;;;;;19.60;16.17;;;;;;;7.97;95.11;67659.22;6064877;23;20029;-85
2022/05/01 05:19:55;;;;;;;19.45;16.70;;;;;;;7.98;95.51;67660.34;6064134;23;20344;-83
2022/05/01 05:22:20;;;;;;;21.33;15.18;;;;;;;7.91;95.71;67653.56;6064978;23;20015;-83
2022/05/01 05:24:46;;;;;;;21.40;15.57;;;;;;;7.98;95.47;67665.66;6063893;23;20021;-83
2022/05/01 05:27:13;;;;;;;21.92;14.50;;;;;;;8.01;94.93;67664.31;6067892;23;20094;-83
2022/05/01 05:29:38;;;;;;;22.55;17.33;;;;;;;8.01;95.52;67664.31;6064154;23;20019;-83
2022/05/01 05:32:05;;;;;;;22.35;15.43;;;;;;;8.01;95.53;67664.31;6089783;23;20074;-83
2022/05/01 05:34:31;;;;;;;21.45;15.90;;;;;;;7.97;96.10;67659.22;6067062;23;20121;-86
2022/05/01 05:36:56;;;;;;;22.83;15.68;;;;;;;;;;6067270;23;20019;-83
2022/05/01 05:39:21;;;;;;;24.48;15.65;;;;;;;8.02;95.53;67665.44;6066828;23;20081;-84
2022/05/01 05:41:47;;;;;;;23.20;17.05;;;;;;;;;;6064158;23;20023;-84
2022/05/01 05:44:12;;;;;;;22.40;16.73;;;;;;;8.02;96.36;67667.53;6066622;23;20051;-85
2022/05/01 05:46:37;;;;;;;20.88;16.85;;;;;;;8.03;96.42;67666.03;6066788;23;20081;-86
2022/05/01 05:49:03;;;;;;;20.38;16.40;;;;;;;8.04;95.81;67667.72;6066669;23;20018;-85
2022/05/01 05:51:29;;;;;;;21.00;16.27;;;;;;;8.01;96.63;67666.41;6067300;23;20523;-84
2022/05/01 05:53:54;;;;;;;21.85;16.65;;;;;;;8.04;96.46;67669.81;6066366;23;20015;-84
2022/05/01 05:56:21;;;;;;;22.05;18.42;;;;;;;8.02;96.53;67667.53;6064217;23;20023;-85
2022/05/01 05:58:47;;;;;;;19.90;16.63;;;;;;;8.12;96.15;67676.22;6065669;23;20409;-85
2022/05/01 06:01:13;;;;;;;20.98;15.98;;;;;;;8.16;95.57;67680.72;6067392;23;20017;-85
2022/05/01 06:03:39;;;;;;;22.15;16.65;;;;;;;8.21;95.70;67689.06;6063274;23;20054;-82
2022/05/01 06:06:05;;;;;;;23.38;16.55;;;;;;;8.27;95.46;67692.63;6062530;23;20352;-84
2022/05/01 06:08:31;;;;;;;20.60;16.17;;;;;;;8.29;95.36;67695.47;6063245;23;20022;-84
2022/05/01 06:10:56;;;;;;;21.60;16.33;;;;;;;;;;6063861;23;20023;-82
2022/05/01 06:13:22;;;;;;;20.65;16.27;;;;;;;8.34;94.94;67703.78;6063818;23;20019;-84
2022/05/01 06:15:47;;;;;;;23.63;16.90;;;;;;;;;;6049195;23;20074;-83
2022/05/01 06:18:13;;;;;;;22.70;17.77;;;;;;;8.32;94.91;67698.88;6036117;23;20488;-84
2022/05/01 06:20:39;;;;;;;21.20;17.30;;;;;;;8.38;94.80;67707.75;6060219;23;20022;-83
2022/05/01 06:23:04;;;;;;;20.50;16.27;;;;;;;8.41;94.14;67708.50;6060320;23;20034;-84
2022/05/01 06:25:30;;;;;;;22.33;15.82;;;;;;;8.43;94.04;67710.19;6061528;23;20030;-83
2022/05/01 06:27:55;;;;;;;23.30;17.38;;;;;;;8.52;94.21;67720.41;6060663;23;20022;-82
2022/05/01 06:30:20;;;;;;;22.10;15.38;;;;;;;8.55;93.08;67726.47;6059629;23;20046;-83
2022/05/01 06:32:47;;;;;;;22.48;16.33;;;;;;;8.58;92.75;67733.06;6058466;23;20033;-83
2022/05/01 06:35:13;;;;;;;23.80;16.98;;;;;;;8.60;92.49;67729.47;6061251;23;20026;-82
2022/05/01 06:37:38;;;;;;;22.10;16.92;;;;;;;8.61;93.02;67725.28;6060762;23;20023;-83
2022/05/01 06:40:05;;;;;;;21.35;16.70;;;;;;;8.66;92.34;67736.28;6060875;23;20022;-83
2022/05/01 06:42:32;;;;;;;20.60;15.63;;;;;;;8.72;92.50;67737.75;6060980;23;20022;-83
2022/05/01 06:44:58;;;;;;;21.40;15.77;;;;;;;8.75;91.94;67746.47;6060578;23;20063;-83
2022/05/01 06:47:23;;;;;;;23.65;16.75;;;;;;;8.79;91.25;67750.44;6061460;23;20050;-82
2022/05/01 06:49:48;;;;;;;21.00;14.55;;;;;;;8.79;90.87;67751.00;6036623;23;20090;-82
2022/05/01 06:52:18;;;;;;;22.02;15.57;;;;;;;;;;6033838;23;20022;-82
2022/05/01 06:54:43;;;;;;;22.08;15.07;;;;;;;8.91;90.02;67763.47;6060080;23;20031;-83
2022/05/01 06:57:09;;;;;;;20.67;15.55;;;;;;;8.94;89.06;67761.53;6061706;23;20743;-82
2022/05/01 06:59:34;;;;;;;18.67;15.35;;;;;;;;;;6059396;23;20500;-82
2022/05/01 07:01:59;;;;;;;18.67;15.77;;;;;;;8.90;88.54;67762.34;6060495;23;20074;-83
2022/05/01 07:04:24;;;;;;;22.08;15.43;;;;;;;9.00;88.13;67773.66;6037297;23;20247;-83
2022/05/01 07:06:50;;;;;;;21.48;14.68;;;;;;;9.01;87.44;67774.81;6060522;23;20173;-82
2022/05/01 07:09:15;;;;;;;19.88;15.52;;;;;;;9.01;87.67;67770.06;6058136;23;20046;-83
2022/05/01 07:11:40;;;;;;;19.20;13.95;;;;;;;9.07;88.45;67783.69;6074287;23;20022;-83
2022/05/01 07:14:06;;;;;;;18.30;13.80;;;;;;;;;;6073300;23;20030;-83
2022/05/01 07:16:31;;;;;;;20.30;14.05;;;;;;;9.16;86.56;67791.78;6072901;23;20073;-84
2022/05/01 07:18:56;;;;;;;19.77;14.77;;;;;;;9.16;86.53;67791.22;6076166;23;20018;-83
2022/05/01 07:21:22;;;;;;;20.10;14.63;;;;;;;9.24;86.50;67803.53;6077605;23;20078;-84
2022/05/01 07:23:47;;;;;;;20.92;14.02;;;;;;;9.26;85.88;67803.13;6079773;23;20019;-83
2022/05/01 07:26:12;;;;;;;24.00;15.10;;;;;;;9.34;86.14;67814.28;6078152;23;20031;-84
2022/05/01 07:28:39;;;;;;;19.63;15.13;;;;;;;;;;6077866;23;20018;-84
2022/05/01 07:31:04;;;;;;;20.25;15.00;;;;;;;;;;6078216;23;20018;-82
2022/05/01 07:33:30;;;;;;;16.88;13.80;;;;;;;;;;6073569;23;20095;-83
2022/05/01 07:35:57;;;;;;;18.27;13.60;;;;;;;9.46;84.01;67825.22;6074770;23;20080;-82
2022/05/01 07:38:23;;;;;;;17.35;13.00;;;;;;;9.57;84.72;67837.13;6073980;23;20520;-84
2022/05/01 07:40:48;;;;;;;16.45;13.10;;;;;;;9.61;82.58;67841.09;6070871;23;20014;-83
2022/05/01 07:43:14;;;;;;;17.90;13.18;;;;;;;9.62;83.18;67842.25;6071172;23;20019;-82
2022/05/01 07:45:39;;;;;;;17.58;12.70;;;;;;;9.69;81.96;67850.75;6071805;23;20078;-82
2022/05/01 07:48:05;;;;;;;17.40;14.40;;;;;;;9.75;82.67;67856.97;6069105;23;20043;-83
2022/05/01 07:50:30;;;;;;;17.40;12.55;;;;;;;9.81;81.07;67863.22;6067405;23;20123;-83
2022/05/01 07:52:56;;;;;;;17.75;11.93;;;;;;;9.93;80.43;67877.41;6064798;23;20078;-82
2022/05/01 07:55:21;;;;;;;15.85;11.50;;;;;;;10.02;79.90;67886.47;6067134;23;20022;-83
2022/05/01 07:57:46;;;;;;;16.58;13.00;;;;;;;10.08;80.27;67893.28;6063950;23;20037;-83
2022/05/01 08:00:13;;;;;;;15.85;12.07;;;;;;;9.98;79.12;67881.94;6066106;23;20019;-82
2022/05/01 08:05:30;;;;;;;15.88;11.77;;;;;;;10.14;76.55;67905.97;6033731;23;20015;-82
2022/05/01 08:07:57;;;;;;;15.75;11.32;;;;;;;10.20;78.56;67906.31;6064636;23;20019;-83
2022/05/01 08:10:23;;;;;;;15.43;11.65;;;;;;;10.41;78.02;67930.16;6066130;23;20078;-82
2022/05/01 08:12:49;;;;;;;15.13;11.90;;;;;;;10.34;77.33;67922.22;6064827;23;20053;-83
2022/05/01 08:15:19;;;;;;;14.50;10.65;;;;;;;10.40;76.34;67929.03;6065279;23;20078;-83
2022/05/01 08:17:45;;;;;;;;;;;;;;;10.58;74.43;67948.91;6065405;23;20023;-82
2022/05/01 08:23:04;;;;;;;17.80;12.30;;;;;;;10.73;75.40;67965.34;6063752;23;20033;-82
2022/05/01 08:25:30;;;;;;;14.95;10.98;;;;;;;10.90;75.78;67987.31;6069505;23;20086;-82
2022/05/01 08:27:55;;;;;;;15.10;10.85;;;;;;;;;;6064947;23;20011;-83
2022/05/01 08:30:21;;;;;;;14.93;11.48;;;;;;;;;;6075828;23;20074;-82
2022/05/01 08:32:46;;;;;;;14.57;11.57;;;;;;;10.97;74.61;67994.69;6078806;23;20038;-82
2022/05/01 08:35:12;;;;;;;12.93;10.02;;;;;;;11.10;74.65;68006.78;6071675;23;20018;-82
2022/05/01 08:37:37;;;;;;;14.20;11.38;;;;;;;11.15;73.92;68011.91;6068655;23;20039;-83
2022/05/01 08:40:03;;;;;;;14.70;11.60;;;;;;;11.14;73.67;68005.44;6069722;23;20081;-82
2022/05/01 08:42:30;;;;;;;14.93;11.02;;;;;;;;;;6068431;23;20023;-83
2022/05/01 08:44:57;;;;;;;13.38;10.95;;;;;;;11.32;73.65;68025.88;6071321;23;20019;-80
2022/05/01 08:47:40;;;;;;;13.60;11.05;;;;;;;11.52;71.73;68053.91;6067695;23;20334;-81
2022/05/01 08:50:07;;;;;;;17.20;11.48;;;;;;;;;;6068579;23;20026;-82
2022/05/01 08:52:35;;;;;;;14.43;11.05;;;;;;;;;;6064868;23;20030;-83
2022/05/01 08:55:03;;;;;;;16.88;10.60;;;;;;;11.79;73.15;68083.44;6070192;23;20571;-83
2022/05/01 08:57:33;;;;;;;15.80;9.93;;;;;;;11.86;70.77;68085.53;6070781;23;20362;-84
2022/05/01 08:59:58;;;;;;;;;;;;;;;;;;6071405;23;20039;-84
2022/05/01 09:02:24;;;;;;;12.05;9.80;;;;;;;11.57;67.38;68053.13;6069983;23;19914;-83
2022/05/01 09:04:50;;;;;;;13.38;10.10;;;;;;;11.66;69.22;68060.69;6069944;23;20015;-84
2022/05/01 09:07:15;;;;;;;11.63;8.80;;;;;;;12.04;68.99;68110.72;6071497;23;20082;-82
2022/05/01 09:09:41;;;;;;;11.60;7.88;;;;;;;12.26;66.52;68135.16;6070064;23;20089;-82
2022/05/01 09:14:51;;;;;;;10.77;7.50;;;;;;;;;;6070775;23;20102;-82
2022/05/01 09:17:17;;;;;;;12.90;8.27;;;;;;;;;;6070443;23;20023;-82
2022/05/01 09:19:42;;;;;;;12.38;8.00;;;;;;;;;;6071069;23;20029;-84
2022/05/01 09:22:08;;;;;;;10.80;7.60;;;;;;;12.11;64.38;68121.94;6069013;23;20015;-83
2022/05/01 09:24:34;;;;;;;12.18;7.68;;;;;;;;;;6071091;23;20026;-84
2022/05/01 09:26:59;;;;;;;10.00;6.22;;;;;;;;;;6068098;23;20075;-84
2022/05/01 09:29:32;;;;;;;9.93;7.65;;;;;;;12.25;64.89;68134.59;6070624;23;20030;-84
2022/05/01 09:32:00;;;;;;;10.85;7.93;;;;;;;12.31;64.46;68143.50;6066540;23;20465;-82
2022/05/01 09:34:30;;;;;;;9.27;8.07;;;;;;;;;;6071615;23;20022;-84
2022/05/01 09:37:15;;;;;;;11.93;8.10;;;;;;;;;;6069859;23;20026;-84
2022/05/01 09:39:40;;;;;;;10.52;7.18;;;;;;;12.22;63.61;68125.84;6071067;23;20042;-84
2022/05/01 09:42:16;;;;;;;13.45;9.25;;;;;;;;;;6069037;23;20361;-83
2022/05/01 09:44:42;;;;;;;11.20;8.23;;;;;;;12.52;66.80;68167.38;6068712;23;20061;-84
2022/05/01 09:47:07;;;;;;;9.65;7.50;;;;;;;;;;6070483;23;20023;-82
2022/05/01 09:49:47;;;;;;;13.13;9.65;;;;;;;12.63;61.95;68171.88;6067577;23;20038;-84
2022/05/01 09:52:12;;;;;;;11.82;8.82;;;;;;;12.44;62.30;68155.06;6064483;23;20587;-84
2022/05/01 09:54:37;;;;;;;10.13;8.80;;;;;;;12.45;61.97;68151.41;6068579;23;20023;-83
2022/05/01 09:57:03;;;;;;;10.02;7.68;;;;;;;;;;6069259;23;19995;-81
2022/05/01 09:59:29;;;;;;;8.40;6.85;;;;;;;12.65;62.01;68179.47;6068740;23;20027;-82
2022/05/01 10:01:55;;;;;;;9.50;6.30;;;;;;;;;;6066488;23;20019;-83
2022/05/01 10:04:23;;;;;;;10.18;6.05;;;;;;;12.63;61.24;68171.31;6069749;23;20041;-81
2022/05/01 10:06:52;;;;;;;9.63;6.47;;;;;;;12.74;60.88;68188.56;6066018;23;20515;-83
2022/05/01 10:09:18;;;;;;;12.70;7.07;;;;;;;12.62;59.74;68170.72;6069604;23;20526;-82
2022/05/01 10:11:44;;;;;;;9.48;7.40;;;;;;;;;;6068569;23;20399;-83
2022/05/01 10:14:09;;;;;;;10.93;7.32;;;;;;;;;;6067072;23;20353;-82
2022/05/01 10:16:35;;;;;;;9.05;6.97;;;;;;;12.27;57.68;68136.31;6064615;23;20020;-82
2022/05/01 10:19:01;;;;;;;10.57;7.47;;;;;;;12.39;58.99;68150.50;6067929;23;20021;-81
2022/05/01 10:21:28;;;;;;;10.30;7.57;;;;;;;12.56;57.35;68163.91;6069603;23;20280;-82
2022/05/01 10:23:54;;;;;;;10.57;7.82;;;;;;;12.53;59.58;68159.94;6067086;23;20023;-83
2022/05/01 10:26:24;;;;;;;10.18;8.15;;;;;;;;;;6070156;23;20042;-83
2022/05/01 10:29:08;;;;;;;12.35;7.50;;;;;;;;;;6066770;23;20030;-83
2022/05/01 10:34:57;;;;;;;13.27;7.97;;;;;;;12.70;60.82;68179.25;6065156;23;20038;-83
2022/05/01 10:37:28;;;;;;;11.65;7.53;;;;;;;;;;6063741;23;20109;-83
2022/05/01 10:39:54;;;;;;;9.05;7.00;;;;;;;;;;6065053;23;20100;-83
2022/05/01 10:42:33;;;;;;;10.70;7.82;;;;;;;12.69;59.05;68178.13;6068258;23;20014;-81
2022/05/01 10:44:58;;;;;;;11.32;9.52;;;;;;;;;;6061514;23;20026;-83
2022/05/01 10:47:35;;;;;;;11.65;8.32;;;;;;;12.48;60.09;68159.59;6066600;23;20026;-84
2022/05/01 10:50:08;;;;;;;11.57;8.25;;;;;;;;;;6063104;23;20018;-82
2022/05/01 10:52:34;;;;;;;9.77;7.35;;;;;;;12.67;58.44;68180.63;6061795;23;20038;-81
2022/05/01 10:55:04;;;;;;;10.60;7.22;;;;;;;12.66;57.63;68174.72;6064097;23;20473;-82
2022/05/01 10:57:30;;;;;;;9.77;7.20;;;;;;;12.64;57.11;68172.44;6062166;23;20452;-83
2022/05/01 11:00:05;;;;;;;12.00;7.20;;;;;;;;;;6066843;23;20021;-82
2022/05/01 11:02:31;;;;;;;12.70;7.38;;;;;;;12.69;57.27;68177.53;6066746;23;20023;-82
2022/05/01 11:04:58;;;;;;;10.70;7.53;;;;;;;12.59;57.29;68172.66;6065030;23;20026;-83
2022/05/01 11:07:25;;;;;;;11.07;7.68;;;;;;;;;;6068516;23;20046;-84
2022/05/01 11:09:51;;;;;;;12.57;7.88;;;;;;;12.78;58.62;68193.13;6067291;23;20357;-83
2022/05/01 11:12:22;;;;;;;12.48;7.75;;;;;;;13.02;59.08;68215.06;6063630;23;20015;-82
2022/05/01 11:14:55;;;;;;;10.38;7.60;;;;;;;;;;6067004;23;20026;-82
2022/05/01 11:17:48;;;;;;;10.40;7.88;;;;;;;12.87;56.55;68203.94;6065165;23;20537;-82
2022/05/01 11:20:19;;;;;;;9.70;8.27;;;;;;;12.53;56.83;68165.28;6067805;23;20089;-83
2022/05/01 11:22:45;;;;;;;10.85;8.00;;;;;;;;;;6065319;23;20045;-81
2022/05/01 11:25:11;;;;;;;10.70;7.70;;;;;;;12.85;58.49;68195.75;6066790;23;20365;-83
2022/05/01 11:27:53;;;;;;;10.68;8.75;;;;;;;12.59;58.10;68166.75;6066693;23;20022;-81
2022/05/01 11:30:27;;;;;;;9.07;7.07;;;;;;;;;;6067083;23;20011;-81
2022/05/01 11:33:08;;;;;;;10.40;7.00;;;;;;;12.87;59.33;68198.59;6067602;23;20027;-82
2022/05/01 11:36:00;;;;;;;10.80;7.57;;;;;;;12.93;59.14;68204.84;6068468;23;20094;-83
2022/05/01 11:38:31;;;;;;;13.60;9.07;;;;;;;;;;6067969;23;20015;-83
2022/05/01 11:40:59;;;;;;;13.85;7.93;;;;;;;12.83;58.24;68198.81;6069781;23;20022;-82
2022/05/01 11:43:28;;;;;;;11.13;8.15;;;;;;;;;;6068671;23;20019;-82
2022/05/01 11:45:54;;;;;;;9.27;7.53;;;;;;;12.85;59.24;68196.31;6069055;23;20015;-82
2022/05/01 11:48:20;;;;;;;11.10;7.55;;;;;;;;;;6069151;23;20029;-80
2022/05/01 11:50:48;;;;;;;10.70;7.93;;;;;;;;;;6067886;23;20029;-83
2022/05/01 11:53:20;;;;;;;11.25;7.25;;;;;;;12.93;57.91;68210.19;6069227;23;20029;-81
2022/05/01 12:04:19;;;;;;;12.38;8.68;;;;;;;13.04;58.14;68217.34;6075251;23;20077;-80
2022/05/01 12:06:45;;;;;;;9.80;8.00;;;;;;;;;;6076376;23;20007;-80
2022/05/01 12:09:10;;;;;;;9.98;8.40;;;;;;;;;;6075960;23;20038;-81
2022/05/01 12:11:35;;;;;;;11.20;8.32;;;;;;;13.06;57.41;68224.38;6069988;23;20029;-82
2022/05/01 12:14:02;;;;;;;11.43;7.93;;;;;;;13.02;59.21;68219.84;6066716;23;20019;-82
2022/05/01 12:16:28;;;;;;;11.20;8.00;;;;;;;13.15;57.97;68229.28;6065643;23;20113;-82
2022/05/01 12:18:55;;;;;;;11.85;9.02;;;;;;;13.10;58.19;68223.59;6065533;23;20019;-82
2022/05/01 12:21:31;;;;;;;10.15;7.95;;;;;;;12.91;58.01;68196.66;6066780;23;20085;-81
2022/05/01 12:24:00;;;;;;;9.95;8.20;;;;;;;;;;6066966;23;20031;-81
2022/05/01 12:26:26;;;;;;;14.07;9.00;;;;;;;13.13;58.44;68226.44;6066038;23;20114;-82
2022/05/01 12:28:52;;;;;;;12.25;8.50;;;;;;;13.18;57.93;68229.47;6065875;23;20018;-81
2022/05/01 12:31:19;;;;;;;12.82;8.15;;;;;;;;;;6063283;23;20031;-81
2022/05/01 12:33:52;;;;;;;10.57;8.45;;;;;;;13.47;57.74;68265.13;6065940;23;20038;-82